sensor_id;sensor_type;location;lat;lon;timestamp;P1;durP1;ratioP1;P2;durP2;ratioP2
7100;SDS011;67978;48.710;8.720;2023-02-20T06:38:53;4.77;;;2.17;;
7100;SDS011;67978;48.710;8.720;2023-02-20T06:41:20;5.70;;;2.20;;
7100;SDS011;67978;48.710;8.720;2023-02-20T06:43:46;7.13;;;2.33;;
7100;SDS011;67978;48.710;8.720;2023-02-20T06:46:13;4.57;;;2.90;;
7100;SDS011;67978;48.710;8.720;2023-02-20T06:48:43;5.77;;;2.50;;
7100;SDS011;67978;48.710;8.720;2023-02-20T06:51:11;5.93;;;2.57;;
7100;SDS011;67978;48.710;8.720;2023-02-20T06:53:38;5.67;;;2.73;;
7100;SDS011;67978;48.710;8.720;2023-02-20T06:56:08;9.93;;;2.70;;
7100;SDS011;67978;48.710;8.720;2023-02-20T06:58:36;4.43;;;2.60;;
7100;SDS011;67978;48.710;8.720;2023-02-20T07:01:03;6.57;;;2.70;;
7100;SDS011;67978;48.710;8.720;2023-02-20T07:03:29;5.73;;;2.50;;
7100;SDS011;67978;48.710;8.720;2023-02-20T07:05:57;5.47;;;2.90;;
7100;SDS011;67978;48.710;8.720;2023-02-20T07:08:23;6.33;;;2.60;;
7100;SDS011;67978;48.710;8.720;2023-02-20T07:10:50;8.70;;;2.53;;
7100;SDS011;67978;48.710;8.720;2023-02-20T07:13:20;5.50;;;3.13;;
7100;SDS011;67978;48.710;8.720;2023-02-20T07:15:47;6.33;;;2.63;;
7100;SDS011;67978;48.710;8.720;2023-02-20T07:18:14;5.77;;;2.80;;
7100;SDS011;67978;48.710;8.720;2023-02-20T07:20:42;5.17;;;2.90;;
7100;SDS011;67978;48.710;8.720;2023-02-20T07:23:08;8.23;;;2.90;;
7100;SDS011;67978;48.710;8.720;2023-02-20T07:25:35;5.10;;;2.70;;
7100;SDS011;67978;48.710;8.720;2023-02-20T07:28:02;4.13;;;2.40;;
7100;SDS011;67978;48.710;8.720;2023-02-20T07:30:33;5.00;;;2.63;;
7100;SDS011;67978;48.710;8.720;2023-02-20T07:33:00;6.50;;;2.77;;
7100;SDS011;67978;48.710;8.720;2023-02-20T07:35:27;5.47;;;2.60;;
7100;SDS011;67978;48.710;8.720;2023-02-20T07:37:53;4.30;;;2.53;;
7100;SDS011;67978;48.710;8.720;2023-02-20T07:40:20;3.93;;;2.03;;
7100;SDS011;67978;48.710;8.720;2023-02-20T07:42:47;5.33;;;3.03;;
7100;SDS011;67978;48.710;8.720;2023-02-20T17:40:10;3.97;;;0.50;;
7100;SDS011;67978;48.710;8.720;2023-02-20T17:42:38;0.90;;;0.70;;
7100;SDS011;67978;48.710;8.720;2023-02-20T17:45:05;1.27;;;0.70;;
7100;SDS011;67978;48.710;8.720;2023-02-20T17:47:33;1.00;;;0.50;;
7100;SDS011;67978;48.710;8.720;2023-02-20T17:50:01;0.93;;;0.60;;
7100;SDS011;67978;48.710;8.720;2023-02-20T17:52:28;1.20;;;0.50;;
7100;SDS011;67978;48.710;8.720;2023-02-20T17:54:55;0.50;;;0.50;;
7100;SDS011;67978;48.710;8.720;2023-02-20T17:57:23;0.70;;;0.70;;
7100;SDS011;67978;48.710;8.720;2023-02-20T17:59:52;1.47;;;0.60;;
7100;SDS011;67978;48.710;8.720;2023-02-20T18:02:19;0.47;;;0.47;;
7100;SDS011;67978;48.710;8.720;2023-02-20T18:04:45;1.50;;;0.70;;
7100;SDS011;67978;48.710;8.720;2023-02-20T18:07:12;0.83;;;0.70;;
7100;SDS011;67978;48.710;8.720;2023-02-20T18:09:41;2.93;;;0.60;;
7100;SDS011;67978;48.710;8.720;2023-02-20T18:12:08;1.00;;;0.70;;
7100;SDS011;67978;48.710;8.720;2023-02-20T18:14:37;0.60;;;0.50;;
7100;SDS011;67978;48.710;8.720;2023-02-20T18:17:04;1.10;;;0.57;;
7100;SDS011;67978;48.710;8.720;2023-02-20T18:19:31;1.40;;;0.60;;
7100;SDS011;67978;48.710;8.720;2023-02-20T18:21:58;0.50;;;0.47;;
7100;SDS011;67978;48.710;8.720;2023-02-20T18:24:25;1.63;;;0.60;;
7100;SDS011;67978;48.710;8.720;2023-02-20T18:26:54;1.37;;;0.60;;
7100;SDS011;67978;48.710;8.720;2023-02-20T18:29:21;1.77;;;0.60;;
7100;SDS011;67978;48.710;8.720;2023-02-20T18:31:51;0.73;;;0.50;;
7100;SDS011;67978;48.710;8.720;2023-02-20T18:34:20;1.80;;;0.67;;
7100;SDS011;67978;48.710;8.720;2023-02-20T18:36:48;0.90;;;0.50;;
7100;SDS011;67978;48.710;8.720;2023-02-20T18:39:15;2.00;;;0.70;;
7100;SDS011;67978;48.710;8.720;2023-02-20T18:41:46;1.33;;;0.70;;
7100;SDS011;67978;48.710;8.720;2023-02-20T18:44:14;2.10;;;0.70;;
7100;SDS011;67978;48.710;8.720;2023-02-20T18:46:41;2.03;;;0.67;;
7100;SDS011;67978;48.710;8.720;2023-02-20T18:49:10;2.50;;;0.53;;
7100;SDS011;67978;48.710;8.720;2023-02-20T18:51:37;2.07;;;0.70;;
7100;SDS011;67978;48.710;8.720;2023-02-20T18:54:07;0.80;;;0.60;;
7100;SDS011;67978;48.710;8.720;2023-02-20T18:56:43;2.03;;;0.70;;
7100;SDS011;67978;48.710;8.720;2023-02-20T18:59:11;0.80;;;0.50;;
7100;SDS011;67978;48.710;8.720;2023-02-20T19:01:39;1.73;;;0.57;;
7100;SDS011;67978;48.710;8.720;2023-02-20T19:04:06;0.80;;;0.60;;
7100;SDS011;67978;48.710;8.720;2023-02-20T19:06:35;3.50;;;0.80;;
7100;SDS011;67978;48.710;8.720;2023-02-20T19:09:04;0.77;;;0.60;;
7100;SDS011;67978;48.710;8.720;2023-02-20T19:11:32;0.90;;;0.67;;
7100;SDS011;67978;48.710;8.720;2023-02-20T19:13:59;1.30;;;0.70;;
7100;SDS011;67978;48.710;8.720;2023-02-20T19:16:26;2.40;;;0.90;;
7100;SDS011;67978;48.710;8.720;2023-02-20T19:18:54;1.73;;;0.90;;
7100;SDS011;67978;48.710;8.720;2023-02-20T19:21:21;1.37;;;0.77;;
7100;SDS011;67978;48.710;8.720;2023-02-20T19:23:49;1.30;;;0.80;;
7100;SDS011;67978;48.710;8.720;2023-02-20T19:26:16;1.27;;;0.70;;
7100;SDS011;67978;48.710;8.720;2023-02-20T19:28:43;1.43;;;0.70;;
7100;SDS011;67978;48.710;8.720;2023-02-20T19:31:10;1.20;;;0.60;;
7100;SDS011;67978;48.710;8.720;2023-02-20T19:33:37;0.53;;;0.53;;
7100;SDS011;67978;48.710;8.720;2023-02-20T19:36:06;2.00;;;0.70;;
7100;SDS011;67978;48.710;8.720;2023-02-20T19:38:34;0.77;;;0.60;;
7100;SDS011;67978;48.710;8.720;2023-02-20T19:41:04;1.40;;;0.77;;
7100;SDS011;67978;48.710;8.720;2023-02-20T19:43:31;1.17;;;0.77;;
7100;SDS011;67978;48.710;8.720;2023-02-20T19:45:58;1.33;;;0.50;;
7100;SDS011;67978;48.710;8.720;2023-02-20T19:48:25;1.30;;;0.90;;
7100;SDS011;67978;48.710;8.720;2023-02-20T19:50:52;0.80;;;0.60;;
7100;SDS011;67978;48.710;8.720;2023-02-20T19:53:19;0.77;;;0.57;;
7100;SDS011;67978;48.710;8.720;2023-02-20T19:55:46;2.50;;;0.90;;
7100;SDS011;67978;48.710;8.720;2023-02-20T19:58:16;1.17;;;0.67;;
7100;SDS011;67978;48.710;8.720;2023-02-20T20:00:43;2.37;;;1.10;;
7100;SDS011;67978;48.710;8.720;2023-02-20T20:03:10;1.20;;;0.70;;
7100;SDS011;67978;48.710;8.720;2023-02-20T20:05:37;0.77;;;0.77;;
7100;SDS011;67978;48.710;8.720;2023-02-20T20:08:03;1.50;;;0.50;;
7100;SDS011;67978;48.710;8.720;2023-02-20T20:10:30;0.87;;;0.77;;
7100;SDS011;67978;48.710;8.720;2023-02-20T20:12:57;1.87;;;0.60;;
7100;SDS011;67978;48.710;8.720;2023-02-20T20:15:25;1.93;;;0.67;;
7100;SDS011;67978;48.710;8.720;2023-02-20T20:17:54;1.00;;;0.70;;
7100;SDS011;67978;48.710;8.720;2023-02-20T20:20:23;2.80;;;0.93;;
7100;SDS011;67978;48.710;8.720;2023-02-20T20:22:52;2.77;;;0.50;;
7100;SDS011;67978;48.710;8.720;2023-02-20T20:25:22;2.03;;;0.77;;
7100;SDS011;67978;48.710;8.720;2023-02-20T20:27:55;1.50;;;0.67;;
7100;SDS011;67978;48.710;8.720;2023-02-20T20:30:28;2.20;;;0.70;;
7100;SDS011;67978;48.710;8.720;2023-02-20T20:32:56;1.07;;;0.60;;
7100;SDS011;67978;48.710;8.720;2023-02-20T20:35:24;1.13;;;0.70;;
7100;SDS011;67978;48.710;8.720;2023-02-20T20:37:53;1.87;;;0.70;;
7100;SDS011;67978;48.710;8.720;2023-02-20T20:40:20;0.63;;;0.60;;
7100;SDS011;67978;48.710;8.720;2023-02-20T20:42:48;1.57;;;0.70;;
7100;SDS011;67978;48.710;8.720;2023-02-20T20:45:15;1.43;;;0.50;;
7100;SDS011;67978;48.710;8.720;2023-02-20T20:47:44;0.90;;;0.60;;
7100;SDS011;67978;48.710;8.720;2023-02-20T20:50:12;1.47;;;0.87;;
7100;SDS011;67978;48.710;8.720;2023-02-20T20:52:41;0.60;;;0.60;;
7100;SDS011;67978;48.710;8.720;2023-02-20T20:55:08;1.47;;;0.60;;
7100;SDS011;67978;48.710;8.720;2023-02-20T20:57:36;0.93;;;0.70;;
7100;SDS011;67978;48.710;8.720;2023-02-20T21:00:05;1.20;;;0.67;;
7100;SDS011;67978;48.710;8.720;2023-02-20T21:02:34;1.13;;;0.70;;
7100;SDS011;67978;48.710;8.720;2023-02-20T21:05:03;1.03;;;0.60;;
7100;SDS011;67978;48.710;8.720;2023-02-20T21:07:30;0.73;;;0.60;;
7100;SDS011;67978;48.710;8.720;2023-02-20T21:09:58;2.83;;;0.80;;
7100;SDS011;67978;48.710;8.720;2023-02-20T21:12:24;1.83;;;0.60;;
7100;SDS011;67978;48.710;8.720;2023-02-20T21:14:51;1.87;;;0.67;;
7100;SDS011;67978;48.710;8.720;2023-02-20T21:17:18;2.30;;;0.70;;
7100;SDS011;67978;48.710;8.720;2023-02-20T21:19:45;1.87;;;0.60;;
7100;SDS011;67978;48.710;8.720;2023-02-20T21:22:13;0.87;;;0.70;;
7100;SDS011;67978;48.710;8.720;2023-02-20T21:24:40;0.70;;;0.50;;
7100;SDS011;67978;48.710;8.720;2023-02-20T21:27:07;0.77;;;0.60;;
7100;SDS011;67978;48.710;8.720;2023-02-20T21:29:33;1.23;;;0.50;;
7100;SDS011;67978;48.710;8.720;2023-02-20T21:32:00;0.93;;;0.73;;
7100;SDS011;67978;48.710;8.720;2023-02-20T21:34:28;1.77;;;0.70;;
7100;SDS011;67978;48.710;8.720;2023-02-20T21:36:54;5.10;;;0.80;;
7100;SDS011;67978;48.710;8.720;2023-02-20T21:39:23;1.17;;;0.60;;
7100;SDS011;67978;48.710;8.720;2023-02-20T21:41:50;3.33;;;0.70;;
7100;SDS011;67978;48.710;8.720;2023-02-20T21:44:44;1.27;;;0.80;;
7100;SDS011;67978;48.710;8.720;2023-02-20T21:47:12;1.73;;;0.70;;
7100;SDS011;67978;48.710;8.720;2023-02-20T21:49:41;0.50;;;0.50;;
7100;SDS011;67978;48.710;8.720;2023-02-20T21:52:09;1.37;;;0.90;;
7100;SDS011;67978;48.710;8.720;2023-02-20T21:54:38;1.10;;;0.60;;
7100;SDS011;67978;48.710;8.720;2023-02-20T21:57:06;1.63;;;0.77;;
7100;SDS011;67978;48.710;8.720;2023-02-20T21:59:33;7.30;;;0.97;;
7100;SDS011;67978;48.710;8.720;2023-02-20T22:01:59;1.53;;;0.70;;
7100;SDS011;67978;48.710;8.720;2023-02-20T22:04:25;1.90;;;0.70;;
7100;SDS011;67978;48.710;8.720;2023-02-20T22:06:51;1.57;;;0.70;;
7100;SDS011;67978;48.710;8.720;2023-02-20T22:09:35;0.80;;;0.70;;
7100;SDS011;67978;48.710;8.720;2023-02-20T22:12:21;1.50;;;0.70;;
7100;SDS011;67978;48.710;8.720;2023-02-20T22:15:05;1.93;;;0.80;;
7100;SDS011;67978;48.710;8.720;2023-02-20T22:17:50;1.90;;;0.90;;
7100;SDS011;67978;48.710;8.720;2023-02-20T22:20:36;1.47;;;0.73;;
7100;SDS011;67978;48.710;8.720;2023-02-20T22:23:20;2.23;;;1.10;;
7100;SDS011;67978;48.710;8.720;2023-02-20T22:26:14;1.90;;;0.70;;
7100;SDS011;67978;48.710;8.720;2023-02-20T22:28:59;0.90;;;0.67;;
7100;SDS011;67978;48.710;8.720;2023-02-20T22:31:44;1.70;;;0.90;;
7100;SDS011;67978;48.710;8.720;2023-02-20T22:34:28;3.50;;;1.30;;
7100;SDS011;67978;48.710;8.720;2023-02-20T22:37:12;2.57;;;0.80;;
7100;SDS011;67978;48.710;8.720;2023-02-20T22:39:57;2.47;;;0.93;;
7100;SDS011;67978;48.710;8.720;2023-02-20T22:42:42;1.50;;;0.73;;
7100;SDS011;67978;48.710;8.720;2023-02-20T22:45:27;1.30;;;0.80;;
7100;SDS011;67978;48.710;8.720;2023-02-20T22:48:11;3.07;;;0.70;;
7100;SDS011;67978;48.710;8.720;2023-02-20T22:50:55;2.00;;;1.00;;
7100;SDS011;67978;48.710;8.720;2023-02-20T22:53:39;2.00;;;1.10;;
7100;SDS011;67978;48.710;8.720;2023-02-20T22:56:24;4.93;;;0.70;;
7100;SDS011;67978;48.710;8.720;2023-02-20T22:59:10;2.80;;;1.00;;
7100;SDS011;67978;48.710;8.720;2023-02-20T23:01:54;0.90;;;0.70;;
7100;SDS011;67978;48.710;8.720;2023-02-20T23:04:38;1.53;;;0.77;;
7100;SDS011;67978;48.710;8.720;2023-02-20T23:07:23;1.97;;;0.80;;
7100;SDS011;67978;48.710;8.720;2023-02-20T23:10:10;1.40;;;0.70;;
7100;SDS011;67978;48.710;8.720;2023-02-20T23:12:55;5.83;;;0.80;;
7100;SDS011;67978;48.710;8.720;2023-02-20T23:15:41;2.27;;;0.80;;
7100;SDS011;67978;48.710;8.720;2023-02-20T23:18:26;1.40;;;0.83;;
7100;SDS011;67978;48.710;8.720;2023-02-20T23:21:10;2.30;;;0.73;;
7100;SDS011;67978;48.710;8.720;2023-02-20T23:23:54;1.67;;;0.80;;
7100;SDS011;67978;48.710;8.720;2023-02-20T23:26:38;2.43;;;0.97;;
7100;SDS011;67978;48.710;8.720;2023-02-20T23:29:23;1.13;;;0.80;;
7100;SDS011;67978;48.710;8.720;2023-02-20T23:32:08;1.60;;;0.87;;
7100;SDS011;67978;48.710;8.720;2023-02-20T23:34:53;1.73;;;0.87;;
7100;SDS011;67978;48.710;8.720;2023-02-20T23:37:37;1.63;;;0.90;;
7100;SDS011;67978;48.710;8.720;2023-02-20T23:40:21;4.20;;;1.13;;
7100;SDS011;67978;48.710;8.720;2023-02-20T23:43:07;2.83;;;0.90;;
7100;SDS011;67978;48.710;8.720;2023-02-20T23:45:51;1.73;;;0.80;;
7100;SDS011;67978;48.710;8.720;2023-02-20T23:48:37;2.10;;;0.80;;
7100;SDS011;67978;48.710;8.720;2023-02-20T23:51:22;0.90;;;0.60;;
7100;SDS011;67978;48.710;8.720;2023-02-20T23:54:06;0.93;;;0.80;;
7100;SDS011;67978;48.710;8.720;2023-02-20T23:56:51;1.90;;;0.80;;
7100;SDS011;67978;48.710;8.720;2023-02-20T23:59:35;1.50;;;0.70;;
